Time;durP1;ratioP1;P1;durP2;ratioP2;P2;SDS_P1;SDS_P2;PMS_P1;PMS_P2;Temp;Humidity;BMP_temperature;BMP_pressure;BME280_temperature;BME280_humidity;BME280_pressure;Samples;Min_cycle;Max_cycle;Signal;HPM_P1;HPM_P2
2023/05/11 00:02:00;;;;;;;2.40;2.20;;;17.40;56.80;;;;;;5020208;28;20459;-83
2023/05/11 00:04:27;;;;;;;3.43;2.30;;;17.40;56.70;;;;;;5025894;28;20948;-84
2023/05/11 00:06:56;;;;;;;5.83;2.20;;;17.40;56.60;;;;;;5007560;28;20444;-83
2023/05/11 00:09:23;;;;;;;2.50;2.30;;;17.40;56.80;;;;;;5014907;28;20492;-84
2023/05/11 00:11:51;;;;;;;2.60;2.40;;;17.40;56.60;;;;;;5002887;28;20479;-83
2023/05/11 00:14:18;;;;;;;2.57;2.30;;;17.40;56.70;;;;;;5007292;28;20465;-81
2023/05/11 00:16:45;;;;;;;6.67;2.60;;;17.40;56.70;;;;;;5016524;28;20479;-81
2023/05/11 00:19:12;;;;;;;2.70;2.40;;;17.40;57.00;;;;;;5018055;28;20473;-82
2023/05/11 00:21:39;;;;;;;4.57;2.77;;;17.40;56.90;;;;;;5018811;28;20452;-84
2023/05/11 00:24:08;;;;;;;4.33;2.97;;;17.40;57.30;;;;;;5019907;28;20819;-83
2023/05/11 00:26:35;;;;;;;3.47;3.17;;;17.40;57.20;;;;;;5035977;28;20445;-83
2023/05/11 00:29:02;;;;;;;4.43;2.60;;;17.40;57.10;;;;;;5033132;28;20562;-85
2023/05/11 00:31:30;;;;;;;5.93;2.60;;;17.40;57.20;;;;;;5019029;28;20455;-83
2023/05/11 00:33:56;;;;;;;3.77;2.27;;;17.30;57.20;;;;;;5015205;28;20539;-83
2023/05/11 00:36:23;;;;;;;2.67;2.43;;;17.30;57.30;;;;;;5014405;28;20580;-83
2023/05/11 00:38:51;;;;;;;2.40;2.20;;;17.30;57.40;;;;;;5047188;28;20472;-83
2023/05/11 00:41:20;;;;;;;5.30;2.83;;;17.30;57.20;;;;;;5034445;28;20467;-86
2023/05/11 00:43:47;;;;;;;3.00;2.57;;;17.30;57.10;;;;;;5007843;28;20500;-82
2023/05/11 00:46:14;;;;;;;3.30;2.60;;;17.30;57.00;;;;;;5024730;28;20540;-84
2023/05/11 00:48:41;;;;;;;4.40;2.93;;;17.30;57.10;;;;;;5051595;28;20488;-83
2023/05/11 00:51:08;;;;;;;2.27;2.07;;;17.20;57.30;;;;;;5023069;28;20528;-82
2023/05/11 00:53:35;;;;;;;2.80;2.60;;;17.20;57.10;;;;;;5024449;28;20472;-83
2023/05/11 00:56:04;;;;;;;3.80;2.70;;;17.20;57.10;;;;;;5020405;28;20569;-83
2023/05/11 00:58:32;;;;;;;2.30;2.20;;;17.10;57.50;;;;;;5012716;28;20465;-83
2023/05/11 01:00:59;;;;;;;2.93;2.73;;;17.10;57.40;;;;;;5028274;28;20949;-83
2023/05/11 01:03:26;;;;;;;2.90;2.27;;;17.10;57.60;;;;;;5023923;28;20453;-85
2023/05/11 01:06:05;;;;;;;3.47;2.87;;;17.10;57.90;;;;;;5030005;28;20442;-85
2023/05/11 01:08:41;;;;;;;3.67;2.40;;;17.10;57.70;;;;;;5008417;28;20476;-84
2023/05/11 01:11:14;;;;;;;2.53;2.33;;;17.20;57.70;;;;;;5012188;28;20448;-84
2023/05/11 01:13:44;;;;;;;5.60;2.40;;;17.20;57.40;;;;;;5009381;28;20491;-82
2023/05/11 01:16:18;;;;;;;4.60;2.47;;;17.20;57.30;;;;;;5032031;28;20532;-83
2023/05/11 01:18:51;;;;;;;4.07;2.30;;;17.20;57.40;;;;;;5015052;28;20528;-84
2023/05/11 01:21:18;;;;;;;2.27;2.17;;;17.20;57.40;;;;;;5031669;28;20908;-83
2023/05/11 01:24:17;;;;;;;3.47;2.23;;;17.20;57.40;;;;;;5020921;28;20461;-83
2023/05/11 01:27:15;;;;;;;3.10;2.37;;;17.20;57.60;;;;;;5009331;28;20445;-81
2023/05/11 01:30:02;;;;;;;2.30;2.10;;;17.20;57.30;;;;;;5001642;28;20558;-84
2023/05/11 01:32:33;;;;;;;4.23;1.90;;;17.20;57.40;;;;;;5007712;28;20457;-83
2023/05/11 01:35:05;;;;;;;2.93;1.90;;;17.20;57.30;;;;;;5030670;28;20437;-84
2023/05/11 01:37:35;;;;;;;1.83;1.70;;;17.10;56.90;;;;;;5029652;28;20465;-83
2023/05/11 01:40:09;;;;;;;4.23;2.10;;;17.00;57.10;;;;;;5006444;28;20453;-83
2023/05/11 01:42:41;;;;;;;2.63;1.93;;;16.90;57.90;;;;;;5007610;28;20465;-83
2023/05/11 01:45:12;;;;;;;4.50;2.20;;;17.00;57.80;;;;;;5015497;28;20500;-83
2023/05/11 01:47:43;;;;;;;4.20;2.27;;;16.90;57.50;;;;;;5021301;28;20493;-84
2023/05/11 01:50:11;;;;;;;2.20;2.00;;;16.80;58.20;;;;;;5012102;28;20487;-82
2023/05/11 01:52:39;;;;;;;2.80;2.17;;;16.90;58.00;;;;;;5019042;28;20476;-84
2023/05/11 01:55:09;;;;;;;2.80;2.60;;;16.90;58.10;;;;;;5012289;28;20453;-83
2023/05/11 01:57:38;;;;;;;2.30;2.13;;;16.90;58.00;;;;;;5006657;28;20465;-85
2023/05/11 02:00:07;;;;;;;2.27;2.07;;;17.00;58.00;;;;;;5004293;28;20483;-83
2023/05/11 02:02:43;;;;;;;2.40;2.20;;;17.00;58.00;;;;;;5036471;28;20536;-84
2023/05/11 02:05:11;;;;;;;2.60;2.40;;;17.00;57.80;;;;;;5004655;28;20846;-83
2023/05/11 02:07:43;;;;;;;3.30;2.33;;;17.00;57.60;;;;;;5042867;28;21009;-84
2023/05/11 02:10:11;;;;;;;2.50;2.30;;;17.00;57.80;;;;;;5029099;28;20518;-84
2023/05/11 02:12:40;;;;;;;3.90;2.70;;;16.90;57.90;;;;;;5008026;28;20810;-82
2023/05/11 02:15:10;;;;;;;2.90;2.37;;;16.80;57.80;;;;;;4995883;28;20453;-83
2023/05/11 02:17:39;;;;;;;2.53;2.33;;;16.80;57.90;;;;;;5015698;28;20465;-85
2023/05/11 02:20:10;;;;;;;4.33;2.20;;;16.80;58.10;;;;;;5017833;28;20461;-83
2023/05/11 02:22:38;;;;;;;2.50;2.30;;;16.80;58.10;;;;;;5035732;28;20469;-85
2023/05/11 02:25:06;;;;;;;4.23;2.40;;;16.80;58.00;;;;;;5010508;28;21777;-82
2023/05/11 02:27:34;;;;;;;2.60;2.40;;;16.80;58.10;;;;;;5003416;28;20541;-83
2023/05/11 02:30:01;;;;;;;2.70;2.50;;;16.80;58.00;;;;;;5015941;28;20476;-82
2023/05/11 02:32:32;;;;;;;2.57;2.27;;;16.80;58.10;;;;;;5036555;28;20464;-83
2023/05/11 02:35:01;;;;;;;5.47;2.70;;;16.80;58.80;;;;;;5032971;28;20476;-82
2023/05/11 02:37:31;;;;;;;4.90;2.47;;;16.80;58.10;;;;;;5021363;28;20488;-84
2023/05/11 02:40:02;;;;;;;3.40;2.90;;;16.80;58.30;;;;;;5035872;28;20522;-84
2023/05/11 02:42:34;;;;;;;5.13;3.43;;;16.80;58.30;;;;;;5051652;28;20544;-83
2023/05/11 02:45:04;;;;;;;5.27;2.97;;;16.80;58.40;;;;;;5030000;28;20463;-83
2023/05/11 02:47:38;;;;;;;3.53;2.90;;;16.70;58.40;;;;;;5026603;28;20547;-84
2023/05/11 02:50:07;;;;;;;3.30;3.00;;;16.70;58.40;;;;;;5018184;28;20956;-82
2023/05/11 02:52:44;;;;;;;5.17;2.90;;;16.70;58.30;;;;;;5027539;28;20460;-83
2023/05/11 02:55:13;;;;;;;3.90;3.20;;;16.70;58.70;;;;;;5041464;28;20449;-83
2023/05/11 02:57:40;;;;;;;7.83;3.20;;;16.70;58.60;;;;;;5020227;28;20479;-84
2023/05/11 03:00:11;;;;;;;3.30;3.00;;;16.70;58.70;;;;;;5021824;28;20519;-83
2023/05/11 03:02:38;;;;;;;3.20;2.63;;;16.70;58.60;;;;;;5018413;28;20451;-83
2023/05/11 03:05:06;;;;;;;3.80;3.33;;;16.70;58.80;;;;;;5003838;28;20454;-82
2023/05/11 03:07:33;;;;;;;5.83;3.73;;;16.70;58.90;;;;;;5015549;28;20442;-81
2023/05/11 03:10:03;;;;;;;3.60;3.27;;;16.60;58.60;;;;;;5019546;28;20850;-84
2023/05/11 03:12:35;;;;;;;3.20;2.90;;;16.60;58.60;;;;;;5005149;28;20449;-82
2023/05/11 03:15:04;;;;;;;6.57;3.20;;;16.70;58.70;;;;;;5016950;28;20457;-83
2023/05/11 03:17:35;;;;;;;9.00;3.40;;;16.70;58.80;;;;;;5033385;28;20488;-82
2023/05/11 03:20:03;;;;;;;2.90;2.60;;;16.60;59.30;;;;;;5048850;28;20812;-83
2023/05/11 03:22:32;;;;;;;8.23;2.97;;;16.60;59.60;;;;;;5007716;28;20445;-83
2023/05/11 03:25:00;;;;;;;3.47;2.83;;;16.60;59.70;;;;;;5024345;28;20934;-83
2023/05/11 03:27:29;;;;;;;3.70;3.03;;;16.60;59.70;;;;;;5003817;28;20491;-81
2023/05/11 03:29:57;;;;;;;5.30;2.53;;;16.60;59.50;;;;;;4998961;28;20469;-83
2023/05/11 03:32:24;;;;;;;3.00;2.53;;;16.60;59.50;;;;;;5028447;28;20516;-83
2023/05/11 03:34:51;;;;;;;6.07;3.20;;;16.60;59.40;;;;;;5017013;28;20452;-84
2023/05/11 03:37:20;;;;;;;2.83;2.63;;;16.60;59.30;;;;;;5019102;28;21050;-83
2023/05/11 03:39:55;;;;;;;3.43;3.23;;;16.60;59.50;;;;;;5020457;28;20469;-83
2023/05/11 03:42:23;;;;;;;4.20;2.73;;;16.60;59.30;;;;;;5025699;28;21017;-82
2023/05/11 03:44:54;;;;;;;2.60;2.33;;;16.60;59.20;;;;;;5017228;28;20542;-82
2023/05/11 03:47:22;;;;;;;2.70;2.50;;;16.60;59.10;;;;;;5022262;28;20448;-83
2023/05/11 03:49:51;;;;;;;4.17;2.80;;;16.60;59.30;;;;;;5034156;28;21238;-83
2023/05/11 03:52:19;;;;;;;4.37;3.17;;;16.50;59.20;;;;;;5008026;28;20502;-83
2023/05/11 03:54:46;;;;;;;4.37;2.97;;;16.60;59.00;;;;;;5023672;28;20457;-82
2023/05/11 03:57:14;;;;;;;3.30;3.03;;;16.60;58.90;;;;;;5031624;28;20565;-82
2023/05/11 03:59:41;;;;;;;2.60;2.43;;;16.60;58.80;;;;;;5003570;28;21042;-84
2023/05/11 04:02:09;;;;;;;2.90;2.60;;;16.40;59.20;;;;;;5002577;28;20954;-84
2023/05/11 04:04:36;;;;;;;3.10;2.50;;;16.50;59.40;;;;;;5035737;28;20446;-82
2023/05/11 04:07:03;;;;;;;3.27;3.03;;;16.50;59.30;;;;;;5019656;28;20455;-82
2023/05/11 04:09:31;;;;;;;16.63;9.67;;;16.50;59.20;;;;;;5017541;28;20485;-83
2023/05/11 04:11:58;;;;;;;6.30;4.80;;;16.50;59.40;;;;;;5004393;28;20995;-83
2023/05/11 04:14:25;;;;;;;4.17;3.60;;;16.60;59.30;;;;;;5010550;28;20552;-83
2023/05/11 04:16:52;;;;;;;6.20;3.63;;;16.60;59.10;;;;;;5016251;28;20476;-83
2023/05/11 04:19:20;;;;;;;4.53;3.93;;;16.60;59.10;;;;;;5021566;28;20472;-83
2023/05/11 04:21:47;;;;;;;6.67;5.43;;;16.60;59.50;;;;;;5023676;28;20441;-83
2023/05/11 04:24:14;;;;;;;7.87;6.10;;;16.70;59.90;;;;;;5020300;28;20579;-83
2023/05/11 04:26:41;;;;;;;4.90;4.50;;;16.70;59.70;;;;;;5038610;28;20534;-85
2023/05/11 04:29:10;;;;;;;4.43;3.77;;;16.70;59.70;;;;;;4997104;28;20464;-83
2023/05/11 04:31:36;;;;;;;3.97;3.67;;;16.70;59.70;;;;;;5020906;28;20459;-83
2023/05/11 04:34:06;;;;;;;5.30;3.00;;;16.80;59.70;;;;;;5011913;28;20850;-84
2023/05/11 04:36:35;;;;;;;6.30;2.87;;;16.80;59.80;;;;;;5017653;28;20444;-83
2023/05/11 04:39:03;;;;;;;3.40;3.10;;;16.70;60.00;;;;;;5026460;28;20473;-83
2023/05/11 04:41:30;;;;;;;3.70;3.40;;;16.70;60.50;;;;;;4995493;28;20978;-84
2023/05/11 04:43:59;;;;;;;3.30;3.00;;;16.60;60.80;;;;;;4994777;28;20473;-83
2023/05/11 04:46:27;;;;;;;5.50;4.60;;;16.70;60.60;;;;;;5013927;28;20437;-84
2023/05/11 04:48:54;;;;;;;3.67;3.23;;;16.80;60.40;;;;;;5003860;28;20472;-82
2023/05/11 04:51:21;;;;;;;2.70;2.50;;;16.80;60.30;;;;;;5022388;28;20449;-84
2023/05/11 04:53:50;;;;;;;3.00;2.60;;;16.80;60.50;;;;;;5023384;28;20449;-84
2023/05/11 04:56:20;;;;;;;3.93;2.57;;;16.90;60.50;;;;;;5010794;28;20460;-84
2023/05/11 04:58:48;;;;;;;2.60;2.37;;;16.70;60.30;;;;;;5014452;28;20942;-84
2023/05/11 05:01:15;;;;;;;4.90;3.13;;;16.60;61.00;;;;;;4996968;28;21870;-84
2023/05/11 05:03:42;;;;;;;2.97;2.47;;;16.40;61.20;;;;;;5022493;28;20449;-84
2023/05/11 05:06:09;;;;;;;4.40;3.10;;;16.60;61.00;;;;;;5028146;28;21115;-84
2023/05/11 05:08:37;;;;;;;4.77;3.13;;;16.70;60.40;;;;;;5004609;28;20461;-83
2023/05/11 05:11:06;;;;;;;3.13;2.83;;;16.80;60.50;;;;;;5027173;28;20476;-83
2023/05/11 05:13:33;;;;;;;2.60;2.40;;;16.90;60.40;;;;;;5037429;28;20506;-84
2023/05/11 05:16:00;;;;;;;3.50;2.67;;;16.90;60.30;;;;;;4995704;28;21072;-84
2023/05/11 05:18:27;;;;;;;3.20;2.90;;;17.00;60.20;;;;;;5021088;28;20516;-84
2023/05/11 05:20:55;;;;;;;5.30;3.40;;;17.00;60.00;;;;;;5004238;28;20441;-84
2023/05/11 05:23:22;;;;;;;3.17;2.83;;;17.00;59.80;;;;;;4999538;28;20452;-83
2023/05/11 05:25:49;;;;;;;2.73;2.47;;;17.00;60.30;;;;;;5011867;28;20521;-83
2023/05/11 05:28:18;;;;;;;5.63;2.97;;;16.90;60.20;;;;;;5014705;28;20452;-84
2023/05/11 05:30:46;;;;;;;3.33;2.27;;;16.90;60.00;;;;;;4998517;28;20437;-84
2023/05/11 05:33:14;;;;;;;2.83;2.60;;;16.90;60.10;;;;;;4998991;28;20442;-84
2023/05/11 05:35:42;;;;;;;3.73;2.87;;;16.90;60.50;;;;;;5031430;28;20451;-84
2023/05/11 05:38:10;;;;;;;3.87;2.87;;;16.80;60.90;;;;;;5012740;28;20472;-84
2023/05/11 05:40:38;;;;;;;4.90;3.53;;;16.80;61.00;;;;;;5008986;28;20465;-83
2023/05/11 05:43:05;;;;;;;5.43;2.77;;;16.90;60.90;;;;;;5004398;28;20452;-84
2023/05/11 05:45:34;;;;;;;5.20;3.60;;;16.90;61.00;;;;;;5030119;28;21103;-84
2023/05/11 05:48:04;;;;;;;2.97;2.57;;;17.00;60.90;;;;;;5004630;28;21120;-85
2023/05/11 05:50:31;;;;;;;3.27;2.57;;;17.00;60.90;;;;;;5024749;28;20483;-84
2023/05/11 05:52:58;;;;;;;2.90;2.70;;;17.10;61.00;;;;;;5026900;28;20838;-84
2023/05/11 05:55:27;;;;;;;2.63;2.33;;;17.00;61.20;;;;;;5014755;28;20834;-84
2023/05/11 05:57:55;;;;;;;4.50;3.37;;;16.90;61.40;;;;;;4994106;28;20890;-85
2023/05/11 06:00:22;;;;;;;2.60;2.40;;;16.90;61.90;;;;;;5019940;28;20468;-84
2023/05/11 06:02:59;;;;;;;3.13;2.83;;;16.70;61.90;;;;;;5001564;28;20473;-84
2023/05/11 06:05:27;;;;;;;2.60;2.40;;;16.50;62.40;;;;;;5022829;28;20455;-84
2023/05/11 06:07:54;;;;;;;2.80;2.57;;;16.60;62.70;;;;;;5000755;28;20531;-84
2023/05/11 06:10:21;;;;;;;6.93;3.03;;;16.70;62.30;;;;;;5025451;28;20652;-84
2023/05/11 06:12:48;;;;;;;3.70;2.70;;;16.90;62.00;;;;;;5032930;28;20973;-84
2023/05/11 06:15:16;;;;;;;2.70;2.50;;;17.10;61.70;;;;;;5015345;28;20491;-84
2023/05/11 06:17:47;;;;;;;4.07;2.63;;;17.20;60.90;;;;;;5019186;28;20853;-84
2023/05/11 06:20:15;;;;;;;3.03;2.33;;;17.20;60.80;;;;;;5014300;28;20472;-84
2023/05/11 06:22:42;;;;;;;5.03;3.30;;;17.10;61.00;;;;;;5008417;28;21026;-84
2023/05/11 06:25:10;;;;;;;5.03;3.20;;;17.10;60.60;;;;;;5003110;28;20459;-84
2023/05/11 06:27:37;;;;;;;3.80;2.77;;;17.00;61.20;;;;;;5042459;28;21021;-84
2023/05/11 06:30:05;;;;;;;8.17;2.57;;;17.10;60.80;;;;;;5039735;28;20476;-83
2023/05/11 06:32:35;;;;;;;4.77;2.77;;;17.10;60.90;;;;;;5018518;28;20445;-84
2023/05/11 06:35:03;;;;;;;4.60;2.80;;;17.20;60.90;;;;;;5022768;28;20488;-84
2023/05/11 06:37:32;;;;;;;6.40;2.80;;;17.00;60.80;;;;;;5019295;28;20906;-84
2023/05/11 06:39:59;;;;;;;4.60;2.30;;;17.20;60.60;;;;;;5007245;28;20475;-84
2023/05/11 06:42:27;;;;;;;2.63;2.43;;;17.30;60.40;;;;;;5016110;28;21043;-84
2023/05/11 06:45:05;;;;;;;5.87;3.30;;;17.50;59.90;;;;;;5033656;28;20539;-85
2023/05/11 06:47:33;;;;;;;9.17;4.00;;;17.40;59.10;;;;;;5009585;28;20542;-83
2023/05/11 06:50:00;;;;;;;2.97;2.10;;;17.50;59.70;;;;;;5023147;28;20838;-81
2023/05/11 06:52:28;;;;;;;2.23;2.03;;;17.60;59.20;;;;;;5024630;28;20817;-82
2023/05/11 06:54:56;;;;;;;2.70;2.20;;;17.60;58.30;;;;;;5031221;28;20759;-80
2023/05/11 06:57:23;;;;;;;2.70;2.10;;;17.60;58.60;;;;;;5024918;28;20461;-82
2023/05/11 06:59:50;;;;;;;4.93;2.37;;;17.60;58.80;;;;;;5049435;28;20487;-81
2023/05/11 07:02:17;;;;;;;2.80;2.33;;;17.70;59.10;;;;;;5048147;28;20442;-79
2023/05/11 07:04:44;;;;;;;6.23;2.40;;;17.70;58.70;;;;;;5017398;28;20894;-83
2023/05/11 07:07:11;;;;;;;2.77;2.57;;;17.80;58.90;;;;;;5032413;28;20452;-80
2023/05/11 07:09:38;;;;;;;4.50;1.90;;;17.90;58.70;;;;;;5007153;28;20469;-80
2023/05/11 07:12:07;;;;;;;3.50;3.30;;;17.80;58.50;;;;;;5003510;28;20453;-82
2023/05/11 07:14:33;;;;;;;3.83;2.23;;;17.80;58.70;;;;;;5050472;28;20457;-81
2023/05/11 07:17:00;;;;;;;2.10;2.00;;;17.80;58.40;;;;;;5033722;28;20926;-84
2023/05/11 07:19:28;;;;;;;2.70;2.50;;;17.70;58.20;;;;;;5016227;28;20978;-81
2023/05/11 07:21:55;;;;;;;2.33;2.13;;;17.40;58.30;;;;;;5039821;28;20454;-81
2023/05/11 07:24:22;;;;;;;5.63;1.83;;;17.40;57.80;;;;;;5015872;28;20475;-81
2023/05/11 07:26:50;;;;;;;2.90;1.70;;;17.60;58.60;;;;;;5020686;28;20440;-81
2023/05/11 07:29:19;;;;;;;2.50;1.77;;;17.80;58.10;;;;;;5031893;28;20452;-81
2023/05/11 07:31:47;;;;;;;1.80;1.40;;;17.80;57.50;;;;;;5015453;28;20800;-82
2023/05/11 07:34:14;;;;;;;3.00;2.80;;;17.90;57.50;;;;;;5030379;28;20516;-83
2023/05/11 07:36:40;;;;;;;2.00;1.73;;;17.60;56.70;;;;;;5023194;28;20441;-82
2023/05/11 07:39:09;;;;;;;1.90;1.43;;;17.60;56.80;;;;;;4997689;28;20479;-81
2023/05/11 07:41:36;;;;;;;2.43;1.93;;;17.30;56.40;;;;;;5032092;28;20441;-81
2023/05/11 07:44:04;;;;;;;2.00;1.80;;;17.40;57.00;;;;;;5021696;28;20445;-81
2023/05/11 07:46:32;;;;;;;1.90;1.73;;;17.60;57.60;;;;;;5032594;28;20881;-81
2023/05/11 07:48:59;;;;;;;2.43;2.23;;;17.80;57.30;;;;;;5011553;28;20478;-81
2023/05/11 07:51:26;;;;;;;3.10;1.70;;;17.80;56.80;;;;;;5031023;28;20483;-81
2023/05/11 07:53:53;;;;;;;2.27;1.70;;;17.80;56.80;;;;;;5040087;28;20836;-82
2023/05/11 07:56:20;;;;;;;2.20;1.60;;;17.80;56.80;;;;;;5014536;28;20490;-82
2023/05/11 07:58:47;;;;;;;1.40;1.30;;;17.90;57.30;;;;;;5016741;28;20477;-82
2023/05/11 08:01:14;;;;;;;1.67;1.57;;;17.90;56.60;;;;;;5013952;28;20893;-82
2023/05/11 08:03:43;;;;;;;2.10;1.90;;;17.90;56.80;;;;;;5048428;28;20460;-81
2023/05/11 08:06:11;;;;;;;2.87;1.60;;;18.00;57.20;;;;;;5029371;28;20452;-81
2023/05/11 08:08:37;;;;;;;1.87;1.77;;;17.80;56.70;;;;;;5030313;28;20470;-82
2023/05/11 08:11:05;;;;;;;2.40;2.17;;;17.90;57.60;;;;;;5013376;28;20448;-82
2023/05/11 08:13:33;;;;;;;1.97;1.70;;;17.90;58.10;;;;;;4998133;28;20459;-82
2023/05/11 08:16:00;;;;;;;5.37;3.20;;;18.00;58.10;;;;;;5028632;28;20535;-82
2023/05/11 08:18:27;;;;;;;10.03;7.50;;;18.10;57.90;;;;;;5022727;28;20656;-82
2023/05/11 08:20:55;;;;;;;3.63;2.43;;;18.00;58.40;;;;;;5033606;28;20548;-81
2023/05/11 08:23:22;;;;;;;2.37;2.17;;;18.20;58.30;;;;;;5034256;28;20489;-82
2023/05/11 08:25:51;;;;;;;1.83;1.50;;;18.30;58.20;;;;;;5037106;28;20453;-82
2023/05/11 08:28:19;;;;;;;4.00;2.40;;;18.40;58.20;;;;;;5000628;28;22406;-81
2023/05/11 08:30:46;;;;;;;2.70;1.63;;;18.40;57.30;;;;;;5021190;28;20429;-81
2023/05/11 08:33:13;;;;;;;3.33;1.60;;;18.40;58.20;;;;;;5033919;28;20462;-82
2023/05/11 08:35:40;;;;;;;1.93;1.83;;;18.20;57.70;;;;;;5001496;28;20449;-81
2023/05/11 08:38:08;;;;;;;2.10;1.90;;;18.10;56.60;;;;;;4997861;28;20836;-82
2023/05/11 08:40:35;;;;;;;7.60;2.10;;;18.10;57.80;;;;;;5030851;28;20450;-81
2023/05/11 08:43:06;;;;;;;2.50;2.30;;;18.00;57.90;;;;;;5018268;28;20471;-83
2023/05/11 08:45:36;;;;;;;2.07;1.87;;;18.00;57.60;;;;;;5011473;28;20456;-83
2023/05/11 08:48:04;;;;;;;2.60;2.40;;;17.90;58.30;;;;;;5013744;28;20449;-83
2023/05/11 08:50:31;;;;;;;2.43;2.03;;;18.00;59.10;;;;;;5033830;28;20446;-83
2023/05/11 08:52:58;;;;;;;2.23;2.00;;;18.20;58.80;;;;;;5000059;28;20448;-82
2023/05/11 08:55:27;;;;;;;1.60;1.50;;;18.30;58.50;;;;;;5029102;28;20450;-84
2023/05/11 08:57:56;;;;;;;2.20;1.80;;;18.40;58.30;;;;;;5019063;28;20492;-83
2023/05/11 09:00:23;;;;;;;1.80;1.70;;;18.30;58.40;;;;;;5047737;28;20866;-83
2023/05/11 09:02:52;;;;;;;5.40;2.37;;;18.30;59.40;;;;;;5033282;28;20477;-83
2023/05/11 09:05:20;;;;;;;2.10;1.90;;;18.40;58.90;;;;;;5022001;28;20465;-83
2023/05/11 09:07:51;;;;;;;2.60;1.77;;;18.50;59.00;;;;;;5030891;28;20465;-82
2023/05/11 09:10:18;;;;;;;2.97;2.10;;;18.50;58.20;;;;;;5015541;28;20453;-83
2023/05/11 09:12:47;;;;;;;2.17;1.93;;;18.50;57.80;;;;;;5025713;28;20463;-83
2023/05/11 09:15:13;;;;;;;3.30;1.60;;;18.40;58.80;;;;;;5018024;28;20461;-82
2023/05/11 09:17:40;;;;;;;1.80;1.60;;;18.40;59.70;;;;;;5012662;28;20442;-82
2023/05/11 09:20:09;;;;;;;3.77;2.00;;;18.50;58.10;;;;;;5038685;28;20478;-84
2023/05/11 09:22:42;;;;;;;3.37;2.03;;;18.40;58.40;;;;;;5003894;28;20453;-83
2023/05/11 09:25:12;;;;;;;3.10;2.30;;;18.50;58.40;;;;;;5014198;28;20437;-83
2023/05/11 09:27:43;;;;;;;5.40;2.60;;;18.50;58.20;;;;;;5008231;28;20451;-84
2023/05/11 09:30:13;;;;;;;3.23;1.97;;;18.60;58.80;;;;;;5045825;28;20465;-83
2023/05/11 09:32:48;;;;;;;2.40;2.23;;;18.70;58.90;;;;;;5001541;28;20452;-84
2023/05/11 09:35:23;;;;;;;1.93;1.73;;;18.90;57.90;;;;;;5036340;28;20447;-83
2023/05/11 09:38:05;;;;;;;3.40;1.80;;;18.80;58.20;;;;;;5020862;28;21002;-84
2023/05/11 09:40:33;;;;;;;2.03;1.83;;;18.70;58.60;;;;;;5029582;28;21335;-83
2023/05/11 09:43:01;;;;;;;3.57;2.00;;;19.00;59.20;;;;;;5024122;28;20445;-83
2023/05/11 09:45:39;;;;;;;3.53;2.30;;;19.10;58.30;;;;;;5047427;28;20783;-84
2023/05/11 09:48:07;;;;;;;2.10;1.90;;;19.20;58.40;;;;;;5016444;28;20464;-84
2023/05/11 09:50:36;;;;;;;3.17;1.93;;;19.20;58.30;;;;;;5045086;28;20532;-84
2023/05/11 09:53:03;;;;;;;2.13;1.93;;;19.20;59.60;;;;;;5013809;28;20448;-84
2023/05/11 09:55:30;;;;;;;2.13;1.53;;;19.20;58.10;;;;;;5017607;28;20468;-83
2023/05/11 09:57:59;;;;;;;2.10;1.90;;;19.20;58.40;;;;;;5023433;28;20926;-83
2023/05/11 10:00:26;;;;;;;2.23;1.90;;;19.40;59.10;;;;;;5003742;28;20501;-83
2023/05/11 10:03:02;;;;;;;2.90;1.87;;;19.30;58.80;;;;;;5021887;28;20556;-83
2023/05/11 10:05:31;;;;;;;2.43;1.60;;;19.20;58.30;;;;;;5020975;28;20454;-83
2023/05/11 10:07:59;;;;;;;2.20;2.00;;;19.40;58.50;;;;;;5046907;28;20821;-83
2023/05/11 10:10:28;;;;;;;2.57;1.83;;;19.40;58.10;;;;;;5031321;28;20501;-84
2023/05/11 10:12:55;;;;;;;2.17;1.97;;;19.20;57.20;;;;;;5028860;28;20461;-83
2023/05/11 10:15:25;;;;;;;1.80;1.70;;;19.30;59.30;;;;;;5045140;28;20835;-83
2023/05/11 10:17:53;;;;;;;2.90;1.70;;;19.30;57.90;;;;;;5006749;28;20497;-85
2023/05/11 10:20:22;;;;;;;2.50;1.90;;;19.10;58.00;;;;;;5019092;28;20523;-85
2023/05/11 10:22:52;;;;;;;3.00;2.10;;;19.00;58.90;;;;;;5012704;28;20954;-84
2023/05/11 10:25:21;;;;;;;2.80;2.20;;;19.10;59.10;;;;;;5016499;28;20453;-83
2023/05/11 10:27:49;;;;;;;2.97;1.60;;;18.90;58.60;;;;;;5040247;28;20525;-83
2023/05/11 10:30:16;;;;;;;3.13;1.70;;;19.10;58.80;;;;;;5026002;28;20466;-83
2023/05/11 10:32:44;;;;;;;2.87;2.03;;;19.20;58.80;;;;;;5014391;28;20469;-83
2023/05/11 10:35:11;;;;;;;2.07;1.90;;;19.20;59.90;;;;;;5011942;28;20980;-83
2023/05/11 10:37:41;;;;;;;2.30;2.10;;;19.40;58.80;;;;;;5047188;28;21148;-83
2023/05/11 10:40:09;;;;;;;2.30;2.10;;;19.20;58.90;;;;;;5025718;28;20469;-83
2023/05/11 10:43:04;;;;;;;3.27;2.27;;;19.20;59.20;;;;;;5011050;28;21529;-82
2023/05/11 10:45:40;;;;;;;2.57;2.37;;;19.20;59.00;;;;;;4998672;28;20820;-83
2023/05/11 10:48:21;;;;;;;2.87;2.47;;;19.10;58.80;;;;;;5001706;28;20491;-83
2023/05/11 10:51:04;;;;;;;2.13;2.00;;;19.20;59.70;;;;;;5022873;28;20456;-83
2023/05/11 10:53:44;;;;;;;3.30;2.17;;;19.10;59.90;;;;;;5012233;28;20466;-83
2023/05/11 10:56:26;;;;;;;2.67;2.27;;;19.20;60.60;;;;;;5005631;28;20863;-83
2023/05/11 10:59:20;;;;;;;2.27;2.00;;;19.40;59.90;;;;;;5019504;28;20961;-84
2023/05/11 11:01:50;;;;;;;3.90;2.60;;;19.50;59.40;;;;;;5048128;28;20444;-83
2023/05/11 11:04:19;;;;;;;3.20;2.40;;;19.30;59.70;;;;;;5035998;28;20974;-83
2023/05/11 11:06:46;;;;;;;2.00;1.90;;;19.30;59.40;;;;;;5027672;28;20533;-84
2023/05/11 11:09:15;;;;;;;2.30;2.20;;;19.30;59.90;;;;;;5030689;28;20967;-83
2023/05/11 11:11:45;;;;;;;3.37;2.90;;;19.40;60.30;;;;;;5031110;28;20529;-83
2023/05/11 11:14:13;;;;;;;3.50;2.83;;;19.50;59.10;;;;;;5016653;28;20453;-83
2023/05/11 11:16:41;;;;;;;2.60;2.40;;;19.50;59.00;;;;;;5014266;28;20511;-83
2023/05/11 11:19:37;;;;;;;2.70;2.50;;;19.60;59.60;;;;;;5014936;28;20465;-83
2023/05/11 11:22:04;;;;;;;2.70;2.50;;;19.60;59.30;;;;;;5006998;28;20465;-83
2023/05/11 11:24:46;;;;;;;2.97;2.67;;;19.40;59.00;;;;;;5012704;28;21115;-83
2023/05/11 11:27:14;;;;;;;2.90;2.60;;;19.40;59.90;;;;;;5020262;28;20445;-83
2023/05/11 11:29:41;;;;;;;3.10;2.40;;;19.30;59.30;;;;;;5032160;28;20472;-82
2023/05/11 11:32:27;;;;;;;3.27;2.97;;;19.50;60.20;;;;;;5029393;28;20438;-83
2023/05/11 11:34:54;;;;;;;5.30;2.50;;;19.50;59.50;;;;;;5032301;28;20455;-83
2023/05/11 11:37:22;;;;;;;3.43;2.73;;;19.50;59.10;;;;;;5046666;28;20445;-82
2023/05/11 11:40:00;;;;;;;3.17;2.87;;;19.50;59.60;;;;;;5030924;28;20491;-83
2023/05/11 11:42:37;;;;;;;3.70;2.40;;;19.50;59.40;;;;;;5015245;28;20432;-83
2023/05/11 11:45:32;;;;;;;4.13;2.80;;;19.50;59.30;;;;;;5016945;28;20453;-83
2023/05/11 11:48:11;;;;;;;3.00;2.60;;;19.50;59.60;;;;;;5013186;28;20477;-82
2023/05/11 11:50:41;;;;;;;2.93;2.73;;;19.60;59.90;;;;;;5048481;28;20527;-83
2023/05/11 11:53:11;;;;;;;3.50;2.67;;;19.60;60.20;;;;;;5029336;28;20912;-83
2023/05/11 11:55:48;;;;;;;2.80;2.57;;;19.70;59.60;;;;;;5022058;28;20457;-83
2023/05/11 11:58:48;;;;;;;2.40;2.20;;;19.70;59.00;;;;;;5013282;28;20526;-83
2023/05/11 12:01:17;;;;;;;2.63;2.43;;;19.60;58.10;;;;;;5029282;28;20452;-83
2023/05/11 12:03:46;;;;;;;4.00;2.67;;;19.60;58.40;;;;;;5032865;28;21330;-83
2023/05/11 12:06:14;;;;;;;3.03;2.80;;;19.60;59.90;;;;;;5012507;28;20453;-83
2023/05/11 12:08:42;;;;;;;2.93;2.70;;;19.60;59.70;;;;;;5004595;28;20470;-83
2023/05/11 12:11:11;;;;;;;7.67;5.93;;;19.80;59.70;;;;;;5029968;28;20463;-83
2023/05/11 12:13:39;;;;;;;5.37;4.87;;;19.70;59.20;;;;;;5028791;28;20469;-82
2023/05/11 12:16:09;;;;;;;4.43;2.70;;;19.70;59.30;;;;;;5014162;28;20483;-83
2023/05/11 12:18:36;;;;;;;2.73;2.53;;;19.50;59.30;;;;;;5015517;28;20560;-83
2023/05/11 12:21:03;;;;;;;2.70;2.50;;;19.50;59.90;;;;;;5032514;28;20483;-83
2023/05/11 12:23:31;;;;;;;3.40;3.10;;;19.50;59.90;;;;;;5046592;28;20457;-83
2023/05/11 12:26:01;;;;;;;2.97;2.47;;;19.70;60.10;;;;;;5035132;28;20449;-82
2023/05/11 12:28:29;;;;;;;2.40;2.20;;;19.60;59.50;;;;;;5028472;28;20469;-83
2023/05/11 12:30:57;;;;;;;2.47;2.27;;;19.60;58.80;;;;;;5028421;28;20447;-83
2023/05/11 12:33:24;;;;;;;2.50;2.30;;;19.70;59.40;;;;;;5029708;28;20448;-83
2023/05/11 12:35:52;;;;;;;1.97;1.60;;;19.60;58.90;;;;;;5033382;28;20961;-82
2023/05/11 12:38:20;;;;;;;5.73;2.10;;;19.60;59.10;;;;;;5039057;28;20491;-82
2023/05/11 12:40:48;;;;;;;5.00;2.20;;;19.70;58.20;;;;;;5046096;28;20978;-82
2023/05/11 12:43:17;;;;;;;2.60;2.40;;;19.90;58.70;;;;;;5021463;28;20449;-82
2023/05/11 12:45:46;;;;;;;2.00;1.80;;;20.00;58.90;;;;;;5018034;28;20523;-82
2023/05/11 12:48:13;;;;;;;2.63;1.93;;;20.00;57.80;;;;;;5019881;28;20449;-83
2023/05/11 12:50:41;;;;;;;2.57;2.37;;;20.00;58.40;;;;;;5039337;28;20444;-83
2023/05/11 12:53:16;;;;;;;2.90;2.23;;;19.90;57.60;;;;;;5009084;28;20996;-82
2023/05/11 12:55:44;;;;;;;2.40;2.20;;;19.80;57.60;;;;;;5002349;28;20540;-82
2023/05/11 12:58:12;;;;;;;3.20;2.53;;;19.90;58.40;;;;;;4998788;28;20453;-83
2023/05/11 13:00:53;;;;;;;2.60;2.40;;;19.90;59.00;;;;;;5018696;28;20552;-83